Time;durP1;ratioP1;P1;durP2;ratioP2;P2;SDS_P1;SDS_P2;PMS_P1;PMS_P2;Temp;Humidity;BMP_temperature;BMP_pressure;BME280_temperature;BME280_humidity;BME280_pressure;Samples;Min_cycle;Max_cycle;Signal;HPM_P1;HPM_P2
2023/10/24 00:01:57;;;;;;;13.38;6.30;;;;;;;16.56;69.72;100782.34;4946114;28;99041;-77
2023/10/24 00:04:24;;;;;;;13.95;6.15;;;;;;;16.54;69.59;100773.56;4957210;28;96737;-78
2023/10/24 00:06:50;;;;;;;11.52;6.38;;;;;;;16.49;69.78;100775.66;4953707;28;96892;-77
2023/10/24 00:09:16;;;;;;;8.95;6.07;;;;;;;16.50;69.64;100769.38;4951099;28;99106;-78
2023/10/24 00:11:43;;;;;;;12.85;6.28;;;;;;;16.51;69.57;100764.88;4949016;28;101321;-78
2023/10/24 00:14:09;;;;;;;6.80;5.80;;;;;;;16.56;69.44;100763.66;4955074;28;97145;-78
2023/10/24 00:16:35;;;;;;;10.00;6.22;;;;;;;16.45;69.95;100758.13;4949557;28;97154;-78
2023/10/24 00:19:03;;;;;;;9.35;5.47;;;;;;;16.25;70.19;100753.97;4946605;28;98824;-79
2023/10/24 00:21:29;;;;;;;9.43;6.07;;;;;;;16.54;69.76;100759.38;4949369;28;98982;-77
2023/10/24 00:23:56;;;;;;;14.07;6.00;;;;;;;16.30;70.84;100743.88;4966917;28;96707;-78
2023/10/24 00:26:22;;;;;;;12.38;6.68;;;;;;;16.28;71.23;100744.91;4955172;28;96863;-78
2023/10/24 00:28:48;;;;;;;10.93;6.10;;;;;;;16.76;69.21;100735.81;4951403;28;99301;-78
2023/10/24 00:31:15;;;;;;;10.70;7.00;;;;;;;16.66;68.78;100732.84;4949777;28;97782;-77
2023/10/24 00:33:41;;;;;;;9.90;6.97;;;;;;;16.77;69.17;100723.31;4958184;28;96827;-82
2023/10/24 00:36:09;;;;;;;8.93;6.40;;;;;;;16.74;69.08;100719.88;4947940;28;96884;-81
2023/10/24 00:38:35;;;;;;;10.35;6.35;;;;;;;16.76;69.37;100713.59;4949984;28;97786;-80
2023/10/24 00:41:02;;;;;;;11.02;6.55;;;;;;;16.83;68.63;100707.78;4953020;28;99168;-80
2023/10/24 00:43:28;;;;;;;10.23;6.10;;;;;;;16.75;68.98;100696.72;4958900;28;96755;-81
2023/10/24 00:45:55;;;;;;;16.25;7.60;;;;;;;16.74;68.95;100697.69;4958886;28;98425;-80
2023/10/24 00:48:21;;;;;;;21.23;8.23;;;;;;;16.56;69.48;100682.78;4955672;28;99502;-80
2023/10/24 00:50:48;;;;;;;10.68;7.13;;;;;;;16.70;69.42;100697.03;4949458;28;98737;-80
2023/10/24 00:53:16;;;;;;;10.85;7.70;;;;;;;16.69;69.20;100694.44;4954465;28;96881;-80
2023/10/24 00:55:42;;;;;;;11.95;7.15;;;;;;;16.70;69.61;100688.16;4949142;28;97145;-81
2023/10/24 00:58:09;;;;;;;14.38;7.22;;;;;;;16.76;69.15;100682.44;4957436;28;98266;-85
2023/10/24 01:00:36;;;;;;;11.52;7.40;;;;;;;16.93;68.53;100682.28;4968796;28;98835;-85
2023/10/24 01:03:05;;;;;;;13.55;7.25;;;;;;;16.84;68.65;100674.81;4958903;28;97033;-85
2023/10/24 01:05:32;;;;;;;10.57;7.07;;;;;;;17.02;68.14;100676.34;4958991;28;96824;-85
2023/10/24 01:07:59;;;;;;;15.07;7.47;;;;;;;16.90;68.90;100661.09;4957200;28;101747;-84
2023/10/24 01:10:27;;;;;;;11.60;7.32;;;;;;;16.92;68.97;100664.53;4959899;28;100698;-84
2023/10/24 01:12:54;;;;;;;13.90;7.60;;;;;;;16.77;69.39;100654.81;4954657;28;96891;-82
2023/10/24 01:15:20;;;;;;;17.33;7.45;;;;;;;16.85;68.98;100636.50;4951238;28;100274;-81
2023/10/24 01:17:50;;;;;;;15.07;7.30;;;;;;;16.85;69.13;100636.50;4950029;28;99064;-82
2023/10/24 01:20:17;;;;;;;10.18;7.05;;;;;;;16.75;69.91;100648.69;4949808;28;97859;-82
2023/10/24 01:22:45;;;;;;;9.68;7.50;;;;;;;16.59;70.52;100655.94;4946485;28;96767;-81
2023/10/24 01:25:13;;;;;;;13.18;7.32;;;;;;;16.58;71.16;100655.06;4958582;28;97261;-81
2023/10/24 01:27:42;;;;;;;13.95;6.55;;;;;;;16.47;71.26;100662.88;4958009;28;99452;-81
2023/10/24 01:30:09;;;;;;;14.30;7.03;;;;;;;16.63;71.08;100655.66;4958884;28;97961;-81
2023/10/24 01:32:36;;;;;;;13.63;7.10;;;;;;;16.65;70.91;100652.91;4963056;28;96898;-82
2023/10/24 01:35:02;;;;;;;14.52;7.25;;;;;;;16.95;69.56;100642.13;4968259;28;97094;-81
2023/10/24 01:37:29;;;;;;;13.23;7.25;;;;;;;17.05;68.70;100628.09;4961181;28;99204;-81
2023/10/24 01:39:57;;;;;;;18.35;7.07;;;;;;;17.02;68.74;100627.44;4961126;28;98002;-81
2023/10/24 01:42:23;;;;;;;12.90;6.80;;;;;;;16.83;69.24;100624.22;4949325;28;97500;-80
2023/10/24 01:44:49;;;;;;;15.57;7.53;;;;;;;16.81;69.55;100623.44;4951387;28;96784;-84
2023/10/24 01:47:16;;;;;;;13.85;7.75;;;;;;;16.79;70.08;100620.91;4953355;28;101868;-87
2023/10/24 01:49:42;;;;;;;17.25;7.95;;;;;;;16.69;70.29;100630.41;4953660;28;101344;-86
2023/10/24 01:52:09;;;;;;;13.75;7.15;;;;;;;16.60;70.79;100636.34;4950853;28;96741;-83
2023/10/24 01:54:35;;;;;;;14.13;7.43;;;;;;;16.62;70.62;100635.28;4956426;28;97022;-84
2023/10/24 01:57:03;;;;;;;14.35;7.50;;;;;;;16.69;70.56;100627.75;4955705;28;99620;-87
2023/10/24 01:59:30;;;;;;;11.85;6.90;;;;;;;16.71;70.86;100615.19;4956082;28;100888;-86
2023/10/24 02:01:56;;;;;;;10.00;6.50;;;;;;;16.75;70.69;100606.00;4959411;28;96722;-86
2023/10/24 02:04:23;;;;;;;15.57;7.03;;;;;;;16.89;69.63;100603.34;4956199;28;96787;-85
2023/10/24 02:06:49;;;;;;;13.20;6.88;;;;;;;16.49;71.22;100604.94;4955037;28;97941;-81
2023/10/24 02:09:16;;;;;;;15.85;7.28;;;;;;;16.64;70.55;100609.38;4950798;28;97709;-82
2023/10/24 02:11:42;;;;;;;16.13;6.95;;;;;;;16.67;70.59;100614.50;4953623;28;96874;-83
2023/10/24 02:14:10;;;;;;;14.93;6.53;;;;;;;16.63;70.71;100615.66;4953127;28;97027;-86
2023/10/24 02:16:36;;;;;;;17.98;7.60;;;;;;;16.57;71.19;100620.47;4952985;28;96838;-85
2023/10/24 02:19:03;;;;;;;12.85;7.20;;;;;;;16.61;70.95;100619.34;4948921;28;98019;-85
2023/10/24 02:21:30;;;;;;;14.95;7.13;;;;;;;16.61;70.85;100612.22;4953492;28;96820;-85
2023/10/24 02:23:56;;;;;;;13.65;7.18;;;;;;;16.26;72.25;100609.03;4958923;28;96795;-83
2023/10/24 02:26:22;;;;;;;15.50;6.85;;;;;;;16.60;71.21;100604.34;4953858;28;99334;-85
2023/10/24 02:28:49;;;;;;;18.27;7.45;;;;;;;16.63;70.81;100598.78;4954210;28;101017;-85
2023/10/24 02:31:17;;;;;;;14.40;7.55;;;;;;;16.85;69.88;100604.50;4957079;28;97720;-85
2023/10/24 02:33:43;;;;;;;17.42;7.50;;;;;;;16.86;69.33;100603.53;4951798;28;97916;-85
2023/10/24 02:36:11;;;;;;;15.13;7.00;;;;;;;16.93;69.62;100602.19;4952528;28;101107;-86
2023/10/24 02:38:38;;;;;;;14.75;7.72;;;;;;;16.92;69.06;100597.81;4957002;28;102006;-85
2023/10/24 02:41:05;;;;;;;15.75;7.35;;;;;;;16.89;69.41;100606.00;4959814;28;96855;-85
2023/10/24 02:43:31;;;;;;;14.65;7.50;;;;;;;16.72;70.22;100603.56;4959405;28;96833;-87
2023/10/24 02:45:59;;;;;;;13.63;7.55;;;;;;;16.83;69.49;100606.38;4960833;28;101399;-85
2023/10/24 02:48:27;;;;;;;14.43;6.97;;;;;;;16.94;69.15;100611.91;4956919;28;101144;-85
2023/10/24 02:50:54;;;;;;;15.35;7.53;;;;;;;16.76;70.17;100614.88;4952361;28;96900;-85
2023/10/24 02:53:21;;;;;;;12.43;6.97;;;;;;;16.58;70.79;100615.06;4961524;28;96822;-84
2023/10/24 02:55:48;;;;;;;18.02;7.50;;;;;;;16.62;70.74;100613.06;4953611;28;101968;-83
2023/10/24 02:58:15;;;;;;;16.73;7.35;;;;;;;16.54;71.41;100612.69;4955740;28;97182;-85
2023/10/24 03:00:41;;;;;;;13.80;7.65;;;;;;;16.47;71.70;100611.34;4953880;28;96723;-85
2023/10/24 03:03:08;;;;;;;14.65;7.63;;;;;;;16.45;71.94;100611.44;4953220;28;96969;-85
2023/10/24 03:05:36;;;;;;;15.48;7.88;;;;;;;16.28;72.55;100600.94;4950319;28;96857;-84
2023/10/24 03:08:02;;;;;;;14.30;7.45;;;;;;;16.51;71.56;100604.84;4955644;28;97650;-84
2023/10/24 03:10:28;;;;;;;12.02;7.72;;;;;;;16.25;72.57;100598.47;4952973;28;96946;-84
2023/10/24 03:12:55;;;;;;;14.55;7.90;;;;;;;16.41;71.73;100595.72;4953733;28;96796;-84
2023/10/24 03:15:22;;;;;;;13.07;7.65;;;;;;;16.43;72.16;100596.47;4953145;28;99965;-82
2023/10/24 03:17:48;;;;;;;15.52;7.97;;;;;;;16.31;72.26;100588.28;4952344;28;97754;-82
2023/10/24 03:20:15;;;;;;;15.00;7.28;;;;;;;16.42;71.94;100597.41;4952972;28;96924;-83
2023/10/24 03:22:43;;;;;;;17.10;8.80;;;;;;;16.43;71.77;100600.00;4950099;28;96852;-84
2023/10/24 03:25:10;;;;;;;12.82;7.38;;;;;;;16.46;71.78;100591.81;4956568;28;100385;-83
2023/10/24 03:27:36;;;;;;;18.77;7.53;;;;;;;16.31;72.74;100593.63;4959416;28;97522;-82
2023/10/24 03:30:03;;;;;;;14.88;7.20;;;;;;;16.43;71.74;100592.00;4957438;28;96816;-84
2023/10/24 03:32:30;;;;;;;21.40;8.05;;;;;;;16.35;72.32;100587.13;4951541;28;96852;-82
2023/10/24 03:34:57;;;;;;;15.63;7.63;;;;;;;16.44;72.15;100579.53;4956434;28;102099;-81
2023/10/24 03:37:24;;;;;;;17.23;8.10;;;;;;;16.69;71.04;100571.72;4952588;28;98120;-86
2023/10/24 03:39:51;;;;;;;12.40;7.40;;;;;;;16.57;70.93;100553.78;4950628;28;96756;-88
2023/10/24 03:42:18;;;;;;;20.70;8.55;;;;;;;16.74;70.37;100545.59;4956289;28;96916;-86
2023/10/24 03:44:45;;;;;;;14.98;7.75;;;;;;;16.85;69.89;100555.59;4954591;28;101467;-88
2023/10/24 03:47:11;;;;;;;14.88;7.75;;;;;;;17.04;69.28;100559.66;4957049;28;101073;-85
2023/10/24 03:49:38;;;;;;;14.35;7.82;;;;;;;16.66;70.00;100555.94;4954275;28;96830;-85
2023/10/24 03:52:06;;;;;;;16.80;9.48;;;;;;;16.68;70.55;100554.00;4957304;28;99684;-85
2023/10/24 03:54:33;;;;;;;13.98;7.18;;;;;;;16.75;69.90;100557.97;4954806;28;101434;-79
2023/10/24 03:57:01;;;;;;;12.80;7.20;;;;;;;16.67;70.43;100558.47;4953905;28;98113;-79
2023/10/24 03:59:27;;;;;;;14.20;7.90;;;;;;;16.72;70.34;100560.88;4951606;28;98874;-78
2023/10/24 04:01:54;;;;;;;13.88;7.57;;;;;;;16.47;71.13;100558.00;4954664;28;96889;-78
2023/10/24 04:04:20;;;;;;;18.90;8.27;;;;;;;16.49;71.42;100550.75;4959063;28;99186;-79
2023/10/24 04:06:46;;;;;;;17.60;7.82;;;;;;;16.55;71.70;100542.34;4949631;28;97508;-79
2023/10/24 04:09:13;;;;;;;16.00;7.80;;;;;;;16.80;70.42;100537.22;4952773;28;96767;-79
2023/10/24 04:11:40;;;;;;;19.70;8.52;;;;;;;16.82;70.07;100537.09;4955251;28;96873;-78
2023/10/24 04:14:07;;;;;;;14.30;8.25;;;;;;;16.90;70.27;100537.47;4952644;28;102420;-85
2023/10/24 04:16:35;;;;;;;12.55;6.63;;;;;;;16.98;69.78;100541.38;4959386;28;100640;-87
2023/10/24 04:19:02;;;;;;;18.13;7.20;;;;;;;16.62;71.26;100533.91;4955835;28;96695;-87
2023/10/24 04:21:28;;;;;;;20.58;8.13;;;;;;;16.64;71.69;100525.81;4953622;28;96884;-86
2023/10/24 04:23:55;;;;;;;15.48;7.25;;;;;;;16.62;71.81;100519.72;4953154;28;100033;-87
2023/10/24 04:26:21;;;;;;;9.95;6.97;;;;;;;16.61;72.37;100510.84;4959185;28;100621;-83
2023/10/24 04:28:48;;;;;;;15.25;7.35;;;;;;;16.67;71.93;100504.28;4958209;28;97095;-84
2023/10/24 04:31:16;;;;;;;19.17;8.25;;;;;;;16.79;71.63;100486.63;4960360;28;97011;-84
2023/10/24 04:33:43;;;;;;;11.10;7.18;;;;;;;16.78;71.61;100469.75;4960005;28;98241;-83
2023/10/24 04:36:11;;;;;;;21.77;7.97;;;;;;;16.77;72.15;100468.03;4955631;28;99952;-84
2023/10/24 04:38:38;;;;;;;14.40;8.73;;;;;;;16.94;71.47;100475.78;4952770;28;97120;-85
2023/10/24 04:41:04;;;;;;;12.88;7.82;;;;;;;16.71;71.98;100482.63;4956161;28;96903;-82
2023/10/24 04:43:31;;;;;;;16.45;8.82;;;;;;;16.56;72.50;100480.06;4955999;28;98381;-81
2023/10/24 04:45:57;;;;;;;16.60;8.10;;;;;;;16.60;72.87;100482.47;4955745;28;101761;-81
2023/10/24 04:48:25;;;;;;;19.17;8.70;;;;;;;16.57;73.28;100493.31;4947656;28;97043;-81
2023/10/24 04:50:51;;;;;;;18.05;8.55;;;;;;;16.66;72.27;100502.56;4959651;28;96985;-79
2023/10/24 04:53:18;;;;;;;21.25;8.70;;;;;;;16.48;72.83;100504.53;4952282;28;102850;-81
2023/10/24 04:55:44;;;;;;;11.73;7.82;;;;;;;16.38;73.90;100502.56;4963096;28;98708;-85
2023/10/24 04:58:11;;;;;;;18.52;8.60;;;;;;;16.36;74.32;100505.31;4968357;28;98125;-85
2023/10/24 05:00:38;;;;;;;16.02;8.23;;;;;;;16.32;74.16;100504.69;4966262;28;96889;-86
2023/10/24 05:03:05;;;;;;;19.27;8.77;;;;;;;16.30;74.20;100500.38;4961647;28;99217;-86
2023/10/24 05:05:33;;;;;;;16.70;7.60;;;;;;;16.12;75.28;100504.22;4962556;28;98481;-84
2023/10/24 05:07:59;;;;;;;18.58;9.40;;;;;;;16.14;75.11;100494.31;4961478;28;96734;-84
2023/10/24 05:10:26;;;;;;;25.15;8.88;;;;;;;16.11;75.28;100482.03;4962615;28;96678;-86
2023/10/24 05:12:53;;;;;;;17.10;7.78;;;;;;;16.33;74.66;100474.41;4964974;28;101316;-86
2023/10/24 05:15:23;;;;;;;13.90;8.02;;;;;;;16.25;74.62;100470.50;4975123;28;99846;-86
2023/10/24 05:17:49;;;;;;;16.45;8.18;;;;;;;16.24;74.23;100474.13;4971739;28;96699;-85
2023/10/24 05:20:17;;;;;;;18.98;7.82;;;;;;;16.16;75.46;100477.25;4943743;28;97012;-84
2023/10/24 05:22:45;;;;;;;19.38;8.95;;;;;;;16.07;75.20;100467.19;4957793;28;99643;-83
2023/10/24 05:25:11;;;;;;;15.50;8.68;;;;;;;16.06;75.79;100476.13;4950566;28;98904;-84
2023/10/24 05:27:38;;;;;;;17.43;8.53;;;;;;;16.21;74.86;100477.00;4959200;28;96712;-84
2023/10/24 05:30:05;;;;;;;18.55;8.32;;;;;;;16.03;75.45;100470.97;4948851;28;96853;-85
2023/10/24 05:32:32;;;;;;;14.20;8.20;;;;;;;16.03;75.49;100473.63;4951597;28;100726;-84
2023/10/24 05:34:58;;;;;;;15.10;7.82;;;;;;;16.18;75.02;100462.03;4943408;28;99783;-82
2023/10/24 05:37:25;;;;;;;14.52;8.18;;;;;;;16.01;75.71;100448.91;4945902;28;96774;-84
2023/10/24 05:39:53;;;;;;;11.77;7.78;;;;;;;16.09;75.39;100451.94;4947446;28;96884;-83
2023/10/24 05:42:19;;;;;;;20.90;8.77;;;;;;;16.10;75.35;100456.31;4947235;28;97891;-82
2023/10/24 05:44:46;;;;;;;11.48;8.00;;;;;;;16.15;74.63;100459.53;4937182;28;97687;-82
2023/10/24 05:47:12;;;;;;;18.40;9.07;;;;;;;16.13;75.19;100457.94;4927611;28;97071;-81
2023/10/24 05:49:38;;;;;;;19.13;8.00;;;;;;;16.17;74.68;100452.31;4932526;28;96981;-84
2023/10/24 05:52:06;;;;;;;19.38;8.40;;;;;;;16.15;75.11;100462.22;4932717;28;101205;-82
2023/10/24 05:54:33;;;;;;;21.42;8.80;;;;;;;16.12;75.42;100443.75;4924834;28;100972;-81
2023/10/24 05:57:01;;;;;;;16.70;8.13;;;;;;;16.03;75.30;100448.81;4930973;28;97563;-81
2023/10/24 05:59:27;;;;;;;25.45;8.75;;;;;;;16.37;74.22;100451.06;4942938;28;100222;-86
2023/10/24 06:01:54;;;;;;;14.00;8.25;;;;;;;16.14;74.47;100449.88;4946219;28;97832;-86
2023/10/24 06:04:21;;;;;;;15.65;8.45;;;;;;;16.01;75.16;100448.91;4957308;28;100966;-86
2023/10/24 06:06:47;;;;;;;12.90;7.75;;;;;;;15.81;75.90;100441.31;4954796;28;96852;-87
2023/10/24 06:09:14;;;;;;;16.30;8.98;;;;;;;16.05;75.48;100430.91;4951704;28;97213;-87
2023/10/24 06:11:41;;;;;;;15.70;8.88;;;;;;;16.02;75.48;100426.63;4949930;28;98376;-86
2023/10/24 06:14:08;;;;;;;17.27;8.48;;;;;;;16.23;75.01;100419.94;4953442;28;100703;-86
2023/10/24 06:16:35;;;;;;;13.77;7.65;;;;;;;16.32;74.59;100403.34;4959004;28;96838;-86
2023/10/24 06:19:02;;;;;;;21.20;9.35;;;;;;;16.39;74.00;100400.28;4947752;28;96850;-82
2023/10/24 06:21:29;;;;;;;18.35;8.88;;;;;;;16.62;73.31;100386.31;4949589;28;97868;-81
2023/10/24 06:23:56;;;;;;;15.95;8.95;;;;;;;16.64;72.51;100381.75;4945973;28;101234;-89
2023/10/24 06:26:23;;;;;;;16.85;8.98;;;;;;;16.51;73.08;100372.81;4955311;28;96649;-86
2023/10/24 06:28:49;;;;;;;20.40;8.23;;;;;;;16.53;72.94;100379.78;4963720;28;96649;-86
2023/10/24 06:31:18;;;;;;;13.98;9.00;;;;;;;16.30;73.55;100383.94;4952096;28;100933;-90
2023/10/24 06:33:45;;;;;;;15.68;8.32;;;;;;;16.09;74.12;100369.31;4965189;28;101000;-89
2023/10/24 06:36:11;;;;;;;16.45;8.00;;;;;;;16.32;73.82;100366.03;4959495;28;96854;-89
2023/10/24 06:38:38;;;;;;;21.42;9.75;;;;;;;16.16;74.08;100373.28;4951462;28;96873;-88
2023/10/24 06:41:19;;;;;;;17.80;8.40;;;;;;;16.30;73.59;100370.59;4956892;28;101704;-88
2023/10/24 06:43:46;;;;;;;17.20;8.55;;;;;;;16.33;73.31;100367.75;4960201;28;101024;-88
2023/10/24 06:46:13;;;;;;;14.50;8.55;;;;;;;16.30;73.54;100367.94;4954716;28;97051;-82
2023/10/24 06:48:40;;;;;;;17.13;8.68;;;;;;;16.33;73.51;100374.88;4956981;28;97197;-81
2023/10/24 06:51:07;;;;;;;17.63;8.90;;;;;;;16.32;73.04;100391.84;4949864;28;101738;-82
2023/10/24 06:53:33;;;;;;;16.55;7.63;;;;;;;16.25;73.54;100386.03;4947376;28;98846;-82
2023/10/24 06:56:00;;;;;;;19.38;8.68;;;;;;;16.59;72.70;100373.19;4950526;28;97496;-81
2023/10/24 06:58:27;;;;;;;16.08;8.88;;;;;;;16.46;73.08;100385.59;4948658;28;96981;-80
2023/10/24 07:00:54;;;;;;;17.58;8.77;;;;;;;16.62;71.92;100381.84;4946602;28;98413;-70
2023/10/24 07:03:21;;;;;;;16.42;8.73;;;;;;;16.85;71.36;100390.16;4950332;28;99161;-69
2023/10/24 07:05:51;;;;;;;13.57;8.85;;;;;;;16.62;72.33;100389.84;4949778;28;97139;-70
2023/10/24 07:08:18;;;;;;;17.50;7.95;;;;;;;16.63;71.89;100401.38;4952755;28;97400;-83
2023/10/24 07:10:45;;;;;;;17.42;7.90;;;;;;;16.58;72.31;100396.31;4954072;28;98252;-83
2023/10/24 07:13:12;;;;;;;20.63;9.00;;;;;;;16.58;72.09;100382.13;4950681;28;97666;-86
2023/10/24 07:15:42;;;;;;;16.42;8.05;;;;;;;16.91;70.99;100379.06;4952949;28;96801;-85
2023/10/24 07:18:08;;;;;;;18.05;8.88;;;;;;;16.85;71.43;100374.13;4953849;28;96845;-84
2023/10/24 07:20:36;;;;;;;22.10;8.30;;;;;;;16.87;70.95;100375.72;4958503;28;100154;-85
2023/10/24 07:23:04;;;;;;;15.15;8.38;;;;;;;16.71;71.68;100365.25;4959339;28;100432;-83
2023/10/24 07:25:31;;;;;;;14.73;8.20;;;;;;;16.88;71.04;100368.56;4953984;28;98461;-83
2023/10/24 07:27:57;;;;;;;16.75;8.55;;;;;;;17.02;70.36;100352.50;4955183;28;97091;-81
2023/10/24 07:30:24;;;;;;;19.23;8.80;;;;;;;16.90;70.97;100345.31;4952609;28;97808;-82
2023/10/24 07:32:53;;;;;;;19.02;8.27;;;;;;;17.04;70.36;100351.44;4961389;28;102055;-82
2023/10/24 07:35:20;;;;;;;15.10;8.23;;;;;;;17.18;69.74;100357.66;4953298;28;96849;-85
2023/10/24 07:37:47;;;;;;;13.90;7.35;;;;;;;17.22;69.11;100357.31;4968083;28;96848;-87
2023/10/24 07:40:15;;;;;;;15.82;8.73;;;;;;;17.21;68.86;100360.09;4964353;28;100932;-86
2023/10/24 07:42:41;;;;;;;20.25;8.65;;;;;;;16.95;70.29;100362.72;4965108;28;101156;-86
2023/10/24 07:45:10;;;;;;;16.02;8.55;;;;;;;17.24;69.44;100375.91;4954684;28;96898;-85
2023/10/24 07:47:37;;;;;;;13.15;7.80;;;;;;;17.43;68.32;100363.00;4954310;28;97319;-84
2023/10/24 07:50:04;;;;;;;112.50;13.38;;;;;;;17.26;68.67;100361.50;4955521;28;98194;-81
2023/10/24 07:52:30;;;;;;;34.00;9.18;;;;;;;17.00;69.38;100352.59;4957469;28;98954;-81
2023/10/24 07:54:57;;;;;;;40.60;8.55;;;;;;;17.09;69.61;100357.31;4961588;28;96733;-84
2023/10/24 07:57:25;;;;;;;18.90;8.75;;;;;;;17.36;68.69;100361.72;4962773;28;96819;-86
2023/10/24 07:59:51;;;;;;;16.08;8.50;;;;;;;17.18;68.87;100363.00;4960450;28;100006;-86
2023/10/24 08:02:18;;;;;;;16.15;8.35;;;;;;;17.16;68.48;100367.56;4955165;28;100379;-85
2023/10/24 08:04:44;;;;;;;14.52;8.15;;;;;;;16.88;69.85;100368.56;4958209;28;96821;-84
2023/10/24 08:07:10;;;;;;;16.80;8.43;;;;;;;17.00;69.57;100368.59;4957177;28;96802;-83
2023/10/24 08:09:37;;;;;;;26.50;8.38;;;;;;;17.05;69.08;100362.97;4957099;28;97925;-86
2023/10/24 08:12:04;;;;;;;12.60;8.65;;;;;;;17.04;69.39;100367.44;4953518;28;96850;-83
2023/10/24 08:14:31;;;;;;;24.60;8.75;;;;;;;17.06;69.21;100346.88;4949594;28;96791;-82
2023/10/24 08:16:58;;;;;;;29.25;8.63;;;;;;;17.29;68.55;100352.41;4951958;28;97007;-83
2023/10/24 08:19:25;;;;;;;23.83;9.75;;;;;;;17.30;68.18;100344.31;4950399;28;101553;-80
2023/10/24 08:21:51;;;;;;;23.20;8.57;;;;;;;17.38;68.11;100351.78;4952378;28;99038;-80
2023/10/24 08:24:17;;;;;;;15.13;8.32;;;;;;;17.12;68.54;100340.25;4954144;28;97134;-79
2023/10/24 08:26:44;;;;;;;18.98;9.30;;;;;;;17.23;68.49;100336.81;4960079;28;96893;-80
2023/10/24 08:29:10;;;;;;;17.98;8.73;;;;;;;17.41;68.03;100331.03;4956444;28;99961;-80
2023/10/24 08:31:38;;;;;;;18.42;9.23;;;;;;;17.17;68.58;100339.91;4958746;28;99659;-82
2023/10/24 08:34:04;;;;;;;19.98;8.75;;;;;;;17.19;68.30;100341.53;4953758;28;96752;-80
2023/10/24 08:36:31;;;;;;;23.45;9.07;;;;;;;17.44;67.98;100338.84;4941136;28;98353;-78
2023/10/24 08:38:58;;;;;;;18.23;9.07;;;;;;;17.63;67.01;100337.59;4948313;28;99290;-80
2023/10/24 08:41:24;;;;;;;19.65;8.70;;;;;;;17.41;67.31;100335.53;4956210;28;100311;-81
2023/10/24 08:43:51;;;;;;;17.17;9.20;;;;;;;17.40;67.23;100337.34;4953625;28;97277;-81
2023/10/24 08:46:17;;;;;;;18.85;8.73;;;;;;;17.27;67.34;100331.16;4949950;28;96836;-80
2023/10/24 08:48:45;;;;;;;19.65;9.10;;;;;;;17.36;67.71;100327.84;4950738;28;98963;-80
2023/10/24 08:51:12;;;;;;;16.38;8.98;;;;;;;17.40;67.68;100325.81;4945161;28;100804;-79
2023/10/24 08:53:38;;;;;;;16.20;8.60;;;;;;;17.48;67.29;100315.44;4949902;28;96841;-80
2023/10/24 08:56:10;;;;;;;19.27;8.65;;;;;;;17.77;66.13;100314.25;4947161;28;96902;-80
2023/10/24 08:58:38;;;;;;;19.52;9.63;;;;;;;17.85;65.94;100303.03;4949331;28;101716;-79
2023/10/24 09:01:06;;;;;;;19.52;9.63;;;;;;;17.92;65.29;100315.81;4948315;28;98123;-80
2023/10/24 09:03:32;;;;;;;21.23;9.35;;;;;;;17.98;65.50;100313.69;4948986;28;97207;-79
2023/10/24 09:06:01;;;;;;;18.10;9.15;;;;;;;18.42;63.50;100305.03;4949748;28;97336;-81
2023/10/24 09:08:27;;;;;;;19.50;9.05;;;;;;;18.06;64.28;100313.94;4952959;28;98650;-79
2023/10/24 09:10:55;;;;;;;16.52;9.40;;;;;;;18.11;64.11;100315.34;4946940;28;97594;-79
2023/10/24 09:13:22;;;;;;;19.42;9.38;;;;;;;18.14;63.89;100320.44;4948045;28;99537;-79
2023/10/24 09:16:07;;;;;;;18.15;9.07;;;;;;;18.14;63.54;100308.91;4947540;28;97626;-79
2023/10/24 09:18:36;;;;;;;20.98;9.38;;;;;;;18.15;63.59;100313.28;4947621;28;99294;-78
2023/10/24 09:21:05;;;;;;;19.27;9.07;;;;;;;18.00;64.13;100311.72;4951437;28;98814;-79
2023/10/24 09:23:32;;;;;;;18.73;9.23;;;;;;;18.07;64.39;100312.97;4948027;28;96776;-78
2023/10/24 09:26:01;;;;;;;18.65;8.60;;;;;;;18.09;63.98;100301.22;4945813;28;96996;-79
2023/10/24 09:28:29;;;;;;;16.90;9.02;;;;;;;18.25;64.08;100307.13;4949988;28;99129;-79
2023/10/24 09:30:57;;;;;;;20.77;9.50;;;;;;;18.08;63.81;100306.69;4946569;28;97729;-78
2023/10/24 09:33:25;;;;;;;18.83;8.90;;;;;;;18.13;63.86;100304.50;4948470;28;97123;-79
2023/10/24 09:35:51;;;;;;;24.67;10.25;;;;;;;18.30;63.59;100299.66;4946721;28;96812;-79
2023/10/24 09:38:21;;;;;;;16.35;9.43;;;;;;;17.92;64.39;100298.91;4944118;28;97679;-79
2023/10/24 09:40:47;;;;;;;14.48;9.43;;;;;;;18.28;63.48;100293.53;4946768;28;98097;-78
2023/10/24 09:43:20;;;;;;;14.82;8.90;;;;;;;18.03;64.33;100296.34;4952920;28;98002;-79
2023/10/24 09:45:48;;;;;;;14.13;8.55;;;;;;;18.10;64.03;100289.56;4946090;28;97323;-80
2023/10/24 09:48:16;;;;;;;19.50;9.43;;;;;;;18.08;64.51;100287.97;4951854;28;98952;-80
2023/10/24 09:50:43;;;;;;;18.00;9.57;;;;;;;18.18;64.21;100279.13;4947409;28;100363;-78
2023/10/24 09:53:10;;;;;;;16.25;9.38;;;;;;;18.07;64.49;100292.44;4946550;28;96805;-79
2023/10/24 09:55:39;;;;;;;18.83;9.50;;;;;;;17.78;65.98;100275.88;4952119;28;96915;-78
2023/10/24 09:58:08;;;;;;;18.55;9.68;;;;;;;18.16;64.71;100280.22;4946034;28;99405;-80
2023/10/24 10:00:34;;;;;;;15.63;9.27;;;;;;;17.82;65.87;100277.38;4946278;28;100141;-78
2023/10/24 10:03:01;;;;;;;22.20;9.38;;;;;;;17.91;65.57;100266.00;4949252;28;96827;-79
2023/10/24 10:05:29;;;;;;;21.08;9.52;;;;;;;18.04;65.24;100265.97;4946759;28;96879;-78
2023/10/24 10:07:57;;;;;;;18.90;9.65;;;;;;;18.01;64.70;100263.50;4951188;28;97821;-77
2023/10/24 10:10:24;;;;;;;22.55;9.65;;;;;;;18.06;64.98;100263.16;4945444;28;98724;-78
2023/10/24 10:12:55;;;;;;;26.10;10.02;;;;;;;17.91;66.18;100259.81;4948814;28;96802;-78
2023/10/24 10:15:50;;;;;;;16.15;9.50;;;;;;;18.01;64.84;100260.81;4950009;28;96801;-78
2023/10/24 10:18:35;;;;;;;19.67;9.20;;;;;;;18.00;65.12;100251.09;4946856;28;98977;-78
2023/10/24 10:21:11;;;;;;;17.67;8.57;;;;;;;18.05;64.82;100253.44;4952046;28;98936;-78
2023/10/24 10:23:53;;;;;;;;;;;;;;;18.18;64.71;100251.56;4947219;28;96962;-77
2023/10/24 10:26:24;;;;;;;20.55;9.05;;;;;;;18.13;64.30;100245.69;4934039;28;97110;-77
2023/10/24 10:29:04;;;;;;;17.73;9.70;;;;;;;17.97;64.64;100243.31;4945182;28;99233;-78
2023/10/24 10:31:53;;;;;;;18.85;9.70;;;;;;;18.10;64.58;100235.25;4944948;28;99324;-78
2023/10/24 10:34:19;;;;;;;17.10;9.05;;;;;;;18.05;65.08;100237.41;4946780;28;97264;-78
2023/10/24 10:36:55;;;;;;;15.75;8.48;;;;;;;17.77;65.78;100225.22;4950593;28;97306;-77
2023/10/24 10:39:21;;;;;;;20.30;9.70;;;;;;;17.75;66.35;100225.31;4949249;28;99368;-78
2023/10/24 10:41:47;;;;;;;19.33;8.85;;;;;;;17.74;67.02;100228.97;4949421;28;99203;-78
2023/10/24 10:44:41;;;;;;;14.20;8.35;;;;;;;18.12;65.40;100231.47;4957656;28;97172;-79
2023/10/24 10:47:09;;;;;;;23.70;9.43;;;;;;;18.21;65.13;100230.78;4950467;28;97323;-79
2023/10/24 10:49:42;;;;;;;17.35;9.52;;;;;;;18.05;65.28;100243.56;4951898;28;99276;-79
2023/10/24 10:52:12;;;;;;;15.93;9.35;;;;;;;18.15;65.18;100239.28;4956655;28;99071;-79
2023/10/24 10:54:46;;;;;;;16.60;8.80;;;;;;;18.38;64.56;100240.19;4953014;28;97229;-79
2023/10/24 10:57:17;;;;;;;20.08;10.45;;;;;;;18.50;64.37;100241.97;4954753;28;98410;-78
2023/10/24 10:59:54;;;;;;;18.08;9.48;;;;;;;18.57;63.81;100243.25;4953955;28;97654;-79
2023/10/24 11:02:44;;;;;;;20.38;9.98;;;;;;;18.51;64.51;100235.63;4949952;28;98485;-77
2023/10/24 11:05:45;;;;;;;21.40;10.27;;;;;;;18.64;64.25;100223.03;4948307;28;99874;-77
2023/10/24 11:08:17;;;;;;;13.88;8.40;;;;;;;18.37;64.90;100225.16;4948691;28;96961;-77
2023/10/24 11:10:52;;;;;;;17.60;9.68;;;;;;;18.49;65.18;100213.50;4944603;28;99194;-78
2023/10/24 11:13:31;;;;;;;14.75;9.43;;;;;;;18.63;64.92;100215.16;4952114;28;99550;-78
2023/10/24 11:16:01;;;;;;;14.05;9.13;;;;;;;18.82;64.36;100215.44;4947510;28;97658;-78
2023/10/24 11:18:28;;;;;;;22.65;10.98;;;;;;;19.09;63.86;100217.78;4952452;28;97194;-79
2023/10/24 11:20:54;;;;;;;19.17;9.43;;;;;;;18.95;63.69;100215.31;4952002;28;99392;-78